sensor_id;sensor_type;location;lat;lon;timestamp;P1;durP1;ratioP1;P2;durP2;ratioP2
16440;SDS011;8330;-33.858;151.184;2023-03-07T00:00:15;5.10;;;1.30;;
16440;SDS011;8330;-33.858;151.184;2023-03-07T00:02:49;4.97;;;1.40;;
16440;SDS011;8330;-33.858;151.184;2023-03-07T00:05:22;6.30;;;1.40;;
16440;SDS011;8330;-33.858;151.184;2023-03-07T00:07:53;5.80;;;1.08;;
16440;SDS011;8330;-33.858;151.184;2023-03-07T00:10:24;4.63;;;1.30;;
16440;SDS011;8330;-33.858;151.184;2023-03-07T00:12:55;3.08;;;1.20;;
16440;SDS011;8330;-33.858;151.184;2023-03-07T00:15:27;7.47;;;1.52;;
16440;SDS011;8330;-33.858;151.184;2023-03-07T00:17:58;8.63;;;1.45;;
16440;SDS011;8330;-33.858;151.184;2023-03-07T00:20:31;5.88;;;1.30;;
16440;SDS011;8330;-33.858;151.184;2023-03-07T00:23:02;7.72;;;1.83;;
16440;SDS011;8330;-33.858;151.184;2023-03-07T00:25:34;5.38;;;1.67;;
16440;SDS011;8330;-33.858;151.184;2023-03-07T00:28:05;6.45;;;1.70;;
16440;SDS011;8330;-33.858;151.184;2023-03-07T00:30:36;5.10;;;1.90;;
16440;SDS011;8330;-33.858;151.184;2023-03-07T00:33:08;4.13;;;1.45;;
16440;SDS011;8330;-33.858;151.184;2023-03-07T00:35:41;6.47;;;1.90;;
16440;SDS011;8330;-33.858;151.184;2023-03-07T00:38:14;3.47;;;1.23;;
16440;SDS011;8330;-33.858;151.184;2023-03-07T00:40:45;3.50;;;1.27;;
16440;SDS011;8330;-33.858;151.184;2023-03-07T00:43:24;4.40;;;1.10;;
16440;SDS011;8330;-33.858;151.184;2023-03-07T00:45:56;9.18;;;1.42;;
16440;SDS011;8330;-33.858;151.184;2023-03-07T00:48:28;3.05;;;1.27;;
16440;SDS011;8330;-33.858;151.184;2023-03-07T00:51:05;4.85;;;1.30;;
16440;SDS011;8330;-33.858;151.184;2023-03-07T00:53:37;3.33;;;1.15;;
16440;SDS011;8330;-33.858;151.184;2023-03-07T00:56:11;5.10;;;1.38;;
16440;SDS011;8330;-33.858;151.184;2023-03-07T00:58:43;7.10;;;1.20;;
16440;SDS011;8330;-33.858;151.184;2023-03-07T01:01:15;3.75;;;1.10;;
16440;SDS011;8330;-33.858;151.184;2023-03-07T01:03:48;8.30;;;1.70;;
16440;SDS011;8330;-33.858;151.184;2023-03-07T01:06:23;2.47;;;1.13;;
16440;SDS011;8330;-33.858;151.184;2023-03-07T01:08:56;2.95;;;0.82;;
16440;SDS011;8330;-33.858;151.184;2023-03-07T01:11:28;5.53;;;1.33;;
16440;SDS011;8330;-33.858;151.184;2023-03-07T01:14:00;3.67;;;1.15;;
16440;SDS011;8330;-33.858;151.184;2023-03-07T01:16:33;2.65;;;1.10;;
16440;SDS011;8330;-33.858;151.184;2023-03-07T01:19:06;4.13;;;1.05;;
16440;SDS011;8330;-33.858;151.184;2023-03-07T01:21:41;4.75;;;1.35;;
16440;SDS011;8330;-33.858;151.184;2023-03-07T01:24:13;8.52;;;1.33;;
16440;SDS011;8330;-33.858;151.184;2023-03-07T01:26:44;8.77;;;1.48;;
16440;SDS011;8330;-33.858;151.184;2023-03-07T01:29:15;9.10;;;1.40;;
16440;SDS011;8330;-33.858;151.184;2023-03-07T01:31:46;5.30;;;1.00;;
16440;SDS011;8330;-33.858;151.184;2023-03-07T01:34:17;1.73;;;1.00;;
16440;SDS011;8330;-33.858;151.184;2023-03-07T01:36:52;5.90;;;1.00;;
16440;SDS011;8330;-33.858;151.184;2023-03-07T01:39:23;3.88;;;1.17;;
16440;SDS011;8330;-33.858;151.184;2023-03-07T01:41:54;5.05;;;0.93;;
16440;SDS011;8330;-33.858;151.184;2023-03-07T01:44:25;2.28;;;0.90;;
16440;SDS011;8330;-33.858;151.184;2023-03-07T01:46:57;4.75;;;1.00;;
16440;SDS011;8330;-33.858;151.184;2023-03-07T01:49:29;4.25;;;1.08;;
16440;SDS011;8330;-33.858;151.184;2023-03-07T01:52:04;2.85;;;0.93;;
16440;SDS011;8330;-33.858;151.184;2023-03-07T01:54:38;5.60;;;1.05;;
16440;SDS011;8330;-33.858;151.184;2023-03-07T01:57:14;3.65;;;0.80;;
16440;SDS011;8330;-33.858;151.184;2023-03-07T01:59:49;2.25;;;0.80;;
16440;SDS011;8330;-33.858;151.184;2023-03-07T02:02:22;3.55;;;1.05;;
16440;SDS011;8330;-33.858;151.184;2023-03-07T02:04:56;7.53;;;0.98;;
16440;SDS011;8330;-33.858;151.184;2023-03-07T02:07:32;3.15;;;1.10;;
16440;SDS011;8330;-33.858;151.184;2023-03-07T02:10:06;3.25;;;1.20;;
16440;SDS011;8330;-33.858;151.184;2023-03-07T02:12:39;2.30;;;0.70;;
16440;SDS011;8330;-33.858;151.184;2023-03-07T02:15:12;3.22;;;0.88;;
16440;SDS011;8330;-33.858;151.184;2023-03-07T02:17:43;5.38;;;0.95;;
16440;SDS011;8330;-33.858;151.184;2023-03-07T02:20:19;4.20;;;1.00;;
16440;SDS011;8330;-33.858;151.184;2023-03-07T02:23:00;5.10;;;0.98;;
16440;SDS011;8330;-33.858;151.184;2023-03-07T02:25:41;3.33;;;0.90;;
16440;SDS011;8330;-33.858;151.184;2023-03-07T02:28:19;2.80;;;1.00;;
16440;SDS011;8330;-33.858;151.184;2023-03-07T02:30:54;4.32;;;0.90;;
16440;SDS011;8330;-33.858;151.184;2023-03-07T02:33:26;4.13;;;0.90;;
16440;SDS011;8330;-33.858;151.184;2023-03-07T02:35:57;4.53;;;0.88;;
16440;SDS011;8330;-33.858;151.184;2023-03-07T02:38:31;3.10;;;0.70;;
16440;SDS011;8330;-33.858;151.184;2023-03-07T02:41:05;12.05;;;1.15;;
16440;SDS011;8330;-33.858;151.184;2023-03-07T02:43:41;2.20;;;0.73;;
16440;SDS011;8330;-33.858;151.184;2023-03-07T02:46:12;1.70;;;0.57;;
16440;SDS011;8330;-33.858;151.184;2023-03-07T02:48:44;2.25;;;0.70;;
16440;SDS011;8330;-33.858;151.184;2023-03-07T02:51:15;2.58;;;0.90;;
16440;SDS011;8330;-33.858;151.184;2023-03-07T02:53:46;2.45;;;0.70;;
16440;SDS011;8330;-33.858;151.184;2023-03-07T02:56:17;2.13;;;0.70;;
16440;SDS011;8330;-33.858;151.184;2023-03-07T02:58:50;1.70;;;0.60;;
16440;SDS011;8330;-33.858;151.184;2023-03-07T03:01:21;3.47;;;1.08;;
16440;SDS011;8330;-33.858;151.184;2023-03-07T03:03:52;1.88;;;0.60;;
16440;SDS011;8330;-33.858;151.184;2023-03-07T03:06:24;1.10;;;0.60;;
16440;SDS011;8330;-33.858;151.184;2023-03-07T03:08:55;5.68;;;0.98;;
16440;SDS011;8330;-33.858;151.184;2023-03-07T03:11:26;1.20;;;0.60;;
16440;SDS011;8330;-33.858;151.184;2023-03-07T03:13:59;2.47;;;0.80;;
16440;SDS011;8330;-33.858;151.184;2023-03-07T03:16:30;3.40;;;0.70;;
16440;SDS011;8330;-33.858;151.184;2023-03-07T03:19:01;5.60;;;0.70;;
16440;SDS011;8330;-33.858;151.184;2023-03-07T03:21:33;2.88;;;0.60;;
16440;SDS011;8330;-33.858;151.184;2023-03-07T03:24:06;2.40;;;0.80;;
16440;SDS011;8330;-33.858;151.184;2023-03-07T03:26:40;3.85;;;1.10;;
16440;SDS011;8330;-33.858;151.184;2023-03-07T03:29:13;11.10;;;1.52;;
16440;SDS011;8330;-33.858;151.184;2023-03-07T03:31:44;7.30;;;1.60;;
16440;SDS011;8330;-33.858;151.184;2023-03-07T03:34:16;5.50;;;1.42;;
16440;SDS011;8330;-33.858;151.184;2023-03-07T03:36:47;5.20;;;1.30;;
16440;SDS011;8330;-33.858;151.184;2023-03-07T03:39:18;7.40;;;1.52;;
16440;SDS011;8330;-33.858;151.184;2023-03-07T03:41:49;2.65;;;1.10;;
16440;SDS011;8330;-33.858;151.184;2023-03-07T03:44:24;6.15;;;1.50;;
16440;SDS011;8330;-33.858;151.184;2023-03-07T03:46:55;4.25;;;1.10;;
16440;SDS011;8330;-33.858;151.184;2023-03-07T03:49:26;3.85;;;1.23;;
16440;SDS011;8330;-33.858;151.184;2023-03-07T03:51:58;5.88;;;1.30;;
16440;SDS011;8330;-33.858;151.184;2023-03-07T03:54:30;6.72;;;1.42;;
16440;SDS011;8330;-33.858;151.184;2023-03-07T03:57:01;3.35;;;1.00;;
16440;SDS011;8330;-33.858;151.184;2023-03-07T03:59:35;4.57;;;1.05;;
16440;SDS011;8330;-33.858;151.184;2023-03-07T04:02:06;3.55;;;1.08;;
16440;SDS011;8330;-33.858;151.184;2023-03-07T04:04:37;4.10;;;1.15;;
16440;SDS011;8330;-33.858;151.184;2023-03-07T04:07:08;4.60;;;1.15;;
16440;SDS011;8330;-33.858;151.184;2023-03-07T04:09:39;3.00;;;0.80;;
16440;SDS011;8330;-33.858;151.184;2023-03-07T04:12:10;2.50;;;1.00;;
16440;SDS011;8330;-33.858;151.184;2023-03-07T04:14:43;5.85;;;1.08;;
16440;SDS011;8330;-33.858;151.184;2023-03-07T04:17:14;4.35;;;1.00;;
16440;SDS011;8330;-33.858;151.184;2023-03-07T04:19:46;3.20;;;0.98;;
16440;SDS011;8330;-33.858;151.184;2023-03-07T04:22:17;3.30;;;1.08;;
16440;SDS011;8330;-33.858;151.184;2023-03-07T04:24:48;7.55;;;1.23;;
16440;SDS011;8330;-33.858;151.184;2023-03-07T04:27:19;3.80;;;1.05;;
16440;SDS011;8330;-33.858;151.184;2023-03-07T04:29:52;5.00;;;1.00;;
16440;SDS011;8330;-33.858;151.184;2023-03-07T04:32:23;4.97;;;0.90;;
16440;SDS011;8330;-33.858;151.184;2023-03-07T04:34:54;3.30;;;1.10;;
16440;SDS011;8330;-33.858;151.184;2023-03-07T04:37:25;4.85;;;1.13;;
16440;SDS011;8330;-33.858;151.184;2023-03-07T04:39:57;5.53;;;1.00;;
16440;SDS011;8330;-33.858;151.184;2023-03-07T04:42:28;6.07;;;1.00;;
16440;SDS011;8330;-33.858;151.184;2023-03-07T04:45:02;4.07;;;1.13;;
16440;SDS011;8330;-33.858;151.184;2023-03-07T04:47:33;2.80;;;0.93;;
16440;SDS011;8330;-33.858;151.184;2023-03-07T04:50:04;3.20;;;1.00;;
16440;SDS011;8330;-33.858;151.184;2023-03-07T04:52:36;4.63;;;0.98;;
16440;SDS011;8330;-33.858;151.184;2023-03-07T04:55:07;5.80;;;1.08;;
16440;SDS011;8330;-33.858;151.184;2023-03-07T04:57:41;3.50;;;1.40;;
16440;SDS011;8330;-33.858;151.184;2023-03-07T05:00:15;2.38;;;0.90;;
16440;SDS011;8330;-33.858;151.184;2023-03-07T05:02:46;5.15;;;1.23;;
16440;SDS011;8330;-33.858;151.184;2023-03-07T05:05:18;6.80;;;1.10;;
16440;SDS011;8330;-33.858;151.184;2023-03-07T05:07:49;6.50;;;1.17;;
16440;SDS011;8330;-33.858;151.184;2023-03-07T05:10:20;3.40;;;1.00;;
16440;SDS011;8330;-33.858;151.184;2023-03-07T05:12:51;5.10;;;1.00;;
16440;SDS011;8330;-33.858;151.184;2023-03-07T05:15:25;4.55;;;1.25;;
16440;SDS011;8330;-33.858;151.184;2023-03-07T05:17:56;4.90;;;1.20;;
16440;SDS011;8330;-33.858;151.184;2023-03-07T05:20:27;2.28;;;1.00;;
16440;SDS011;8330;-33.858;151.184;2023-03-07T05:22:59;4.55;;;1.10;;
16440;SDS011;8330;-33.858;151.184;2023-03-07T05:25:30;3.55;;;0.93;;
16440;SDS011;8330;-33.858;151.184;2023-03-07T05:28:01;3.97;;;1.30;;
16440;SDS011;8330;-33.858;151.184;2023-03-07T05:30:34;6.43;;;1.20;;
16440;SDS011;8330;-33.858;151.184;2023-03-07T05:33:05;4.97;;;1.00;;
16440;SDS011;8330;-33.858;151.184;2023-03-07T05:35:36;4.15;;;1.08;;
16440;SDS011;8330;-33.858;151.184;2023-03-07T05:38:07;4.05;;;0.90;;
16440;SDS011;8330;-33.858;151.184;2023-03-07T05:40:39;4.40;;;1.23;;
16440;SDS011;8330;-33.858;151.184;2023-03-07T05:43:10;5.45;;;0.90;;
16440;SDS011;8330;-33.858;151.184;2023-03-07T05:45:43;3.97;;;1.10;;
16440;SDS011;8330;-33.858;151.184;2023-03-07T05:48:14;3.97;;;0.98;;
16440;SDS011;8330;-33.858;151.184;2023-03-07T05:50:46;5.70;;;1.23;;
16440;SDS011;8330;-33.858;151.184;2023-03-07T05:53:20;4.65;;;1.10;;
16440;SDS011;8330;-33.858;151.184;2023-03-07T05:55:51;3.40;;;0.90;;
16440;SDS011;8330;-33.858;151.184;2023-03-07T05:58:22;4.20;;;1.00;;
16440;SDS011;8330;-33.858;151.184;2023-03-07T06:00:56;3.92;;;0.85;;
16440;SDS011;8330;-33.858;151.184;2023-03-07T06:03:30;3.72;;;0.95;;
16440;SDS011;8330;-33.858;151.184;2023-03-07T06:06:04;4.97;;;1.00;;
16440;SDS011;8330;-33.858;151.184;2023-03-07T06:08:37;5.63;;;1.10;;
16440;SDS011;8330;-33.858;151.184;2023-03-07T06:11:09;3.03;;;1.00;;
16440;SDS011;8330;-33.858;151.184;2023-03-07T06:13:40;4.75;;;1.00;;
16440;SDS011;8330;-33.858;151.184;2023-03-07T06:16:16;4.47;;;1.10;;
16440;SDS011;8330;-33.858;151.184;2023-03-07T06:18:47;3.33;;;0.80;;
16440;SDS011;8330;-33.858;151.184;2023-03-07T06:21:18;3.17;;;1.00;;
16440;SDS011;8330;-33.858;151.184;2023-03-07T06:23:49;4.88;;;1.05;;
16440;SDS011;8330;-33.858;151.184;2023-03-07T06:26:20;7.63;;;1.20;;
16440;SDS011;8330;-33.858;151.184;2023-03-07T06:28:51;3.60;;;1.00;;
16440;SDS011;8330;-33.858;151.184;2023-03-07T06:31:25;4.43;;;0.90;;
16440;SDS011;8330;-33.858;151.184;2023-03-07T06:33:56;4.50;;;1.05;;
16440;SDS011;8330;-33.858;151.184;2023-03-07T06:36:27;3.58;;;1.30;;
16440;SDS011;8330;-33.858;151.184;2023-03-07T06:38:59;4.43;;;1.15;;
16440;SDS011;8330;-33.858;151.184;2023-03-07T06:41:30;5.60;;;1.27;;
16440;SDS011;8330;-33.858;151.184;2023-03-07T06:44:01;4.85;;;1.30;;
16440;SDS011;8330;-33.858;151.184;2023-03-07T06:46:35;5.57;;;1.25;;
16440;SDS011;8330;-33.858;151.184;2023-03-07T06:49:06;10.20;;;1.50;;
16440;SDS011;8330;-33.858;151.184;2023-03-07T06:51:37;5.05;;;1.30;;
16440;SDS011;8330;-33.858;151.184;2023-03-07T06:54:08;5.57;;;1.30;;
16440;SDS011;8330;-33.858;151.184;2023-03-07T06:56:39;6.43;;;1.50;;
16440;SDS011;8330;-33.858;151.184;2023-03-07T06:59:10;5.70;;;1.45;;
16440;SDS011;8330;-33.858;151.184;2023-03-07T07:01:43;6.20;;;1.52;;
16440;SDS011;8330;-33.858;151.184;2023-03-07T07:04:15;6.15;;;1.30;;
16440;SDS011;8330;-33.858;151.184;2023-03-07T07:06:46;8.40;;;1.50;;
16440;SDS011;8330;-33.858;151.184;2023-03-07T07:09:17;9.90;;;1.33;;
16440;SDS011;8330;-33.858;151.184;2023-03-07T07:11:49;6.50;;;1.38;;
16440;SDS011;8330;-33.858;151.184;2023-03-07T07:14:20;7.90;;;1.83;;
16440;SDS011;8330;-33.858;151.184;2023-03-07T07:16:53;9.15;;;1.70;;
16440;SDS011;8330;-33.858;151.184;2023-03-07T07:19:24;11.70;;;2.00;;
16440;SDS011;8330;-33.858;151.184;2023-03-07T07:21:56;8.07;;;1.85;;
16440;SDS011;8330;-33.858;151.184;2023-03-07T07:24:27;7.38;;;1.75;;
16440;SDS011;8330;-33.858;151.184;2023-03-07T07:26:58;10.63;;;2.17;;
16440;SDS011;8330;-33.858;151.184;2023-03-07T07:29:30;7.75;;;1.70;;
16440;SDS011;8330;-33.858;151.184;2023-03-07T07:32:04;10.90;;;2.13;;
16440;SDS011;8330;-33.858;151.184;2023-03-07T07:34:35;8.25;;;2.10;;
16440;SDS011;8330;-33.858;151.184;2023-03-07T07:37:06;7.05;;;1.85;;
16440;SDS011;8330;-33.858;151.184;2023-03-07T07:39:37;6.90;;;1.80;;
16440;SDS011;8330;-33.858;151.184;2023-03-07T07:42:09;11.35;;;2.20;;
16440;SDS011;8330;-33.858;151.184;2023-03-07T07:44:40;6.25;;;1.90;;
16440;SDS011;8330;-33.858;151.184;2023-03-07T07:47:14;6.53;;;1.65;;
16440;SDS011;8330;-33.858;151.184;2023-03-07T07:49:45;7.03;;;2.13;;
16440;SDS011;8330;-33.858;151.184;2023-03-07T07:52:16;9.50;;;2.50;;
16440;SDS011;8330;-33.858;151.184;2023-03-07T07:54:47;6.93;;;2.30;;
16440;SDS011;8330;-33.858;151.184;2023-03-07T07:57:18;7.78;;;2.10;;
16440;SDS011;8330;-33.858;151.184;2023-03-07T07:59:49;8.55;;;2.47;;
16440;SDS011;8330;-33.858;151.184;2023-03-07T08:02:22;13.18;;;2.70;;
16440;SDS011;8330;-33.858;151.184;2023-03-07T08:04:54;9.20;;;2.40;;
16440;SDS011;8330;-33.858;151.184;2023-03-07T08:07:25;8.45;;;2.30;;
16440;SDS011;8330;-33.858;151.184;2023-03-07T08:09:56;11.23;;;2.50;;
16440;SDS011;8330;-33.858;151.184;2023-03-07T08:12:27;9.25;;;2.22;;
16440;SDS011;8330;-33.858;151.184;2023-03-07T08:14:59;10.85;;;2.65;;
16440;SDS011;8330;-33.858;151.184;2023-03-07T08:17:32;15.73;;;2.58;;
16440;SDS011;8330;-33.858;151.184;2023-03-07T08:20:03;11.25;;;2.67;;
16440;SDS011;8330;-33.858;151.184;2023-03-07T08:22:35;14.80;;;3.20;;
16440;SDS011;8330;-33.858;151.184;2023-03-07T08:25:09;12.18;;;3.05;;
16440;SDS011;8330;-33.858;151.184;2023-03-07T08:27:47;14.32;;;2.95;;
16440;SDS011;8330;-33.858;151.184;2023-03-07T08:30:20;8.95;;;2.33;;
16440;SDS011;8330;-33.858;151.184;2023-03-07T08:32:53;10.68;;;2.70;;
16440;SDS011;8330;-33.858;151.184;2023-03-07T08:35:25;14.65;;;2.80;;
16440;SDS011;8330;-33.858;151.184;2023-03-07T08:37:57;12.60;;;2.85;;
16440;SDS011;8330;-33.858;151.184;2023-03-07T08:40:29;11.68;;;3.20;;
16440;SDS011;8330;-33.858;151.184;2023-03-07T08:43:00;14.05;;;3.35;;
16440;SDS011;8330;-33.858;151.184;2023-03-07T08:45:31;11.13;;;2.75;;
16440;SDS011;8330;-33.858;151.184;2023-03-07T08:48:05;15.40;;;3.50;;
16440;SDS011;8330;-33.858;151.184;2023-03-07T08:50:37;13.45;;;3.22;;
16440;SDS011;8330;-33.858;151.184;2023-03-07T08:53:08;16.27;;;3.50;;
16440;SDS011;8330;-33.858;151.184;2023-03-07T08:55:41;13.98;;;3.38;;
16440;SDS011;8330;-33.858;151.184;2023-03-07T08:58:14;12.98;;;3.08;;
16440;SDS011;8330;-33.858;151.184;2023-03-07T09:00:46;13.57;;;3.45;;
16440;SDS011;8330;-33.858;151.184;2023-03-07T09:03:19;13.93;;;3.05;;
16440;SDS011;8330;-33.858;151.184;2023-03-07T09:05:50;11.35;;;3.05;;
16440;SDS011;8330;-33.858;151.184;2023-03-07T09:08:21;15.55;;;3.15;;
16440;SDS011;8330;-33.858;151.184;2023-03-07T09:10:52;16.45;;;3.42;;
16440;SDS011;8330;-33.858;151.184;2023-03-07T09:13:23;13.02;;;3.40;;
16440;SDS011;8330;-33.858;151.184;2023-03-07T09:15:54;12.68;;;3.45;;
16440;SDS011;8330;-33.858;151.184;2023-03-07T09:18:27;11.82;;;2.90;;
16440;SDS011;8330;-33.858;151.184;2023-03-07T09:21:02;16.30;;;3.40;;
16440;SDS011;8330;-33.858;151.184;2023-03-07T09:23:34;10.93;;;3.15;;
16440;SDS011;8330;-33.858;151.184;2023-03-07T09:26:05;11.55;;;3.05;;
16440;SDS011;8330;-33.858;151.184;2023-03-07T09:28:37;15.85;;;3.63;;
16440;SDS011;8330;-33.858;151.184;2023-03-07T09:31:08;8.98;;;2.83;;
16440;SDS011;8330;-33.858;151.184;2023-03-07T09:33:42;10.68;;;3.10;;
16440;SDS011;8330;-33.858;151.184;2023-03-07T09:36:13;11.65;;;3.50;;
16440;SDS011;8330;-33.858;151.184;2023-03-07T09:38:45;15.80;;;2.92;;
16440;SDS011;8330;-33.858;151.184;2023-03-07T09:41:29;18.23;;;3.58;;
16440;SDS011;8330;-33.858;151.184;2023-03-07T09:44:22;14.18;;;3.22;;
16440;SDS011;8330;-33.858;151.184;2023-03-07T09:47:08;13.48;;;3.08;;
16440;SDS011;8330;-33.858;151.184;2023-03-07T09:49:49;13.60;;;3.17;;
16440;SDS011;8330;-33.858;151.184;2023-03-07T09:52:22;14.43;;;3.45;;
16440;SDS011;8330;-33.858;151.184;2023-03-07T09:54:55;15.07;;;3.45;;
16440;SDS011;8330;-33.858;151.184;2023-03-07T09:57:28;12.27;;;2.90;;
16440;SDS011;8330;-33.858;151.184;2023-03-07T10:00:02;15.57;;;3.30;;
16440;SDS011;8330;-33.858;151.184;2023-03-07T10:02:41;15.82;;;3.42;;
16440;SDS011;8330;-33.858;151.184;2023-03-07T10:05:21;9.60;;;2.70;;
16440;SDS011;8330;-33.858;151.184;2023-03-07T10:08:01;11.02;;;3.10;;
16440;SDS011;8330;-33.858;151.184;2023-03-07T10:10:35;11.15;;;3.00;;
16440;SDS011;8330;-33.858;151.184;2023-03-07T10:13:12;14.40;;;3.33;;
16440;SDS011;8330;-33.858;151.184;2023-03-07T10:15:58;16.92;;;3.40;;
16440;SDS011;8330;-33.858;151.184;2023-03-07T10:18:38;13.80;;;3.15;;
16440;SDS011;8330;-33.858;151.184;2023-03-07T10:21:23;12.68;;;3.10;;
16440;SDS011;8330;-33.858;151.184;2023-03-07T10:24:14;9.88;;;2.40;;
16440;SDS011;8330;-33.858;151.184;2023-03-07T10:27:02;13.30;;;3.10;;
16440;SDS011;8330;-33.858;151.184;2023-03-07T10:29:37;13.43;;;2.65;;
16440;SDS011;8330;-33.858;151.184;2023-03-07T10:32:18;10.35;;;2.95;;
16440;SDS011;8330;-33.858;151.184;2023-03-07T10:34:55;12.40;;;3.10;;
16440;SDS011;8330;-33.858;151.184;2023-03-07T10:37:37;12.23;;;3.40;;
16440;SDS011;8330;-33.858;151.184;2023-03-07T10:40:20;13.75;;;3.08;;
16440;SDS011;8330;-33.858;151.184;2023-03-07T10:42:54;13.80;;;3.30;;
16440;SDS011;8330;-33.858;151.184;2023-03-07T10:45:29;15.63;;;3.20;;
16440;SDS011;8330;-33.858;151.184;2023-03-07T10:48:04;10.23;;;3.13;;
16440;SDS011;8330;-33.858;151.184;2023-03-07T10:50:44;10.60;;;2.78;;
16440;SDS011;8330;-33.858;151.184;2023-03-07T10:53:23;13.50;;;3.08;;
16440;SDS011;8330;-33.858;151.184;2023-03-07T10:56:07;14.43;;;3.40;;
16440;SDS011;8330;-33.858;151.184;2023-03-07T11:01:30;15.65;;;3.50;;
16440;SDS011;8330;-33.858;151.184;2023-03-07T11:04:05;15.85;;;3.33;;
16440;SDS011;8330;-33.858;151.184;2023-03-07T11:06:50;11.35;;;2.92;;
16440;SDS011;8330;-33.858;151.184;2023-03-07T11:09:27;13.85;;;3.25;;
16440;SDS011;8330;-33.858;151.184;2023-03-07T11:12:10;8.57;;;2.72;;
16440;SDS011;8330;-33.858;151.184;2023-03-07T11:14:47;10.50;;;2.85;;
16440;SDS011;8330;-33.858;151.184;2023-03-07T11:17:21;9.32;;;2.80;;
16440;SDS011;8330;-33.858;151.184;2023-03-07T11:19:58;11.45;;;2.97;;
16440;SDS011;8330;-33.858;151.184;2023-03-07T11:22:32;9.90;;;3.10;;
16440;SDS011;8330;-33.858;151.184;2023-03-07T11:25:08;11.48;;;3.08;;
16440;SDS011;8330;-33.858;151.184;2023-03-07T11:27:47;12.38;;;3.15;;
16440;SDS011;8330;-33.858;151.184;2023-03-07T11:30:22;9.60;;;2.80;;
16440;SDS011;8330;-33.858;151.184;2023-03-07T11:33:04;10.93;;;2.88;;
16440;SDS011;8330;-33.858;151.184;2023-03-07T11:38:33;9.52;;;2.60;;
16440;SDS011;8330;-33.858;151.184;2023-03-07T11:41:15;10.93;;;2.70;;
16440;SDS011;8330;-33.858;151.184;2023-03-07T11:43:51;7.28;;;2.25;;
16440;SDS011;8330;-33.858;151.184;2023-03-07T11:46:36;7.93;;;2.47;;
16440;SDS011;8330;-33.858;151.184;2023-03-07T11:49:32;11.18;;;2.72;;
16440;SDS011;8330;-33.858;151.184;2023-03-07T11:52:15;11.35;;;2.92;;
16440;SDS011;8330;-33.858;151.184;2023-03-07T11:54:57;12.13;;;2.85;;
16440;SDS011;8330;-33.858;151.184;2023-03-07T11:57:45;10.15;;;2.63;;
16440;SDS011;8330;-33.858;151.184;2023-03-07T12:00:30;13.18;;;3.13;;
16440;SDS011;8330;-33.858;151.184;2023-03-07T12:03:14;8.85;;;2.90;;
16440;SDS011;8330;-33.858;151.184;2023-03-07T12:06:15;11.10;;;2.88;;
16440;SDS011;8330;-33.858;151.184;2023-03-07T12:09:03;10.05;;;2.88;;
16440;SDS011;8330;-33.858;151.184;2023-03-07T12:11:46;9.50;;;2.97;;
16440;SDS011;8330;-33.858;151.184;2023-03-07T12:14:29;10.50;;;3.05;;
16440;SDS011;8330;-33.858;151.184;2023-03-07T12:17:09;9.30;;;2.80;;
16440;SDS011;8330;-33.858;151.184;2023-03-07T12:19:52;12.85;;;2.78;;
16440;SDS011;8330;-33.858;151.184;2023-03-07T12:22:48;8.40;;;2.70;;
16440;SDS011;8330;-33.858;151.184;2023-03-07T12:25:31;8.60;;;2.80;;
16440;SDS011;8330;-33.858;151.184;2023-03-07T12:28:07;10.68;;;2.53;;
16440;SDS011;8330;-33.858;151.184;2023-03-07T12:30:46;10.82;;;2.80;;
16440;SDS011;8330;-33.858;151.184;2023-03-07T12:33:25;7.30;;;2.47;;
16440;SDS011;8330;-33.858;151.184;2023-03-07T12:36:03;11.25;;;3.00;;
16440;SDS011;8330;-33.858;151.184;2023-03-07T12:38:38;9.63;;;2.80;;
16440;SDS011;8330;-33.858;151.184;2023-03-07T12:41:18;11.07;;;2.75;;
16440;SDS011;8330;-33.858;151.184;2023-03-07T12:43:54;12.05;;;2.90;;
16440;SDS011;8330;-33.858;151.184;2023-03-07T12:46:31;9.20;;;3.17;;
16440;SDS011;8330;-33.858;151.184;2023-03-07T12:49:10;13.88;;;3.05;;
16440;SDS011;8330;-33.858;151.184;2023-03-07T12:51:45;9.68;;;2.80;;
16440;SDS011;8330;-33.858;151.184;2023-03-07T12:54:20;10.15;;;2.70;;
16440;SDS011;8330;-33.858;151.184;2023-03-07T12:56:56;8.63;;;2.90;;
16440;SDS011;8330;-33.858;151.184;2023-03-07T12:59:32;15.10;;;3.00;;
16440;SDS011;8330;-33.858;151.184;2023-03-07T13:02:09;10.00;;;2.80;;
16440;SDS011;8330;-33.858;151.184;2023-03-07T13:04:43;9.32;;;2.63;;
16440;SDS011;8330;-33.858;151.184;2023-03-07T13:07:14;9.63;;;2.58;;
16440;SDS011;8330;-33.858;151.184;2023-03-07T13:09:48;7.78;;;2.42;;
16440;SDS011;8330;-33.858;151.184;2023-03-07T13:12:28;10.70;;;3.20;;
16440;SDS011;8330;-33.858;151.184;2023-03-07T13:15:02;7.25;;;2.70;;
16440;SDS011;8330;-33.858;151.184;2023-03-07T13:20:38;11.80;;;3.00;;
16440;SDS011;8330;-33.858;151.184;2023-03-07T13:23:12;9.25;;;2.70;;
16440;SDS011;8330;-33.858;151.184;2023-03-07T13:25:55;8.80;;;2.60;;
16440;SDS011;8330;-33.858;151.184;2023-03-07T13:31:25;9.60;;;2.47;;
16440;SDS011;8330;-33.858;151.184;2023-03-07T13:43:34;7.78;;;2.55;;
16440;SDS011;8330;-33.858;151.184;2023-03-07T13:49:33;7.68;;;2.25;;
16440;SDS011;8330;-33.858;151.184;2023-03-07T13:55:26;7.93;;;2.33;;
16440;SDS011;8330;-33.858;151.184;2023-03-07T13:57:59;8.55;;;1.70;;
16440;SDS011;8330;-33.858;151.184;2023-03-07T14:00:53;7.60;;;1.70;;
16440;SDS011;8330;-33.858;151.184;2023-03-07T14:03:27;7.57;;;1.90;;
16440;SDS011;8330;-33.858;151.184;2023-03-07T14:06:02;6.35;;;1.60;;
16440;SDS011;8330;-33.858;151.184;2023-03-07T14:08:39;4.13;;;1.30;;
16440;SDS011;8330;-33.858;151.184;2023-03-07T14:11:15;5.47;;;1.60;;
16440;SDS011;8330;-33.858;151.184;2023-03-07T14:16:56;6.82;;;1.25;;
16440;SDS011;8330;-33.858;151.184;2023-03-07T14:19:55;3.60;;;1.08;;
16440;SDS011;8330;-33.858;151.184;2023-03-07T14:22:41;3.08;;;1.20;;
16440;SDS011;8330;-33.858;151.184;2023-03-07T14:25:26;2.80;;;1.00;;
16440;SDS011;8330;-33.858;151.184;2023-03-07T14:28:02;5.80;;;1.40;;
16440;SDS011;8330;-33.858;151.184;2023-03-07T14:30:53;4.82;;;1.23;;
16440;SDS011;8330;-33.858;151.184;2023-03-07T14:33:29;3.70;;;0.85;;
16440;SDS011;8330;-33.858;151.184;2023-03-07T14:36:01;1.95;;;1.05;;
16440;SDS011;8330;-33.858;151.184;2023-03-07T14:38:43;2.72;;;1.08;;
16440;SDS011;8330;-33.858;151.184;2023-03-07T14:41:21;7.93;;;1.20;;
16440;SDS011;8330;-33.858;151.184;2023-03-07T14:44:06;3.97;;;0.93;;
16440;SDS011;8330;-33.858;151.184;2023-03-07T14:46:59;4.20;;;1.08;;
16440;SDS011;8330;-33.858;151.184;2023-03-07T14:49:37;3.13;;;0.90;;
16440;SDS011;8330;-33.858;151.184;2023-03-07T14:52:18;5.03;;;1.10;;
16440;SDS011;8330;-33.858;151.184;2023-03-07T14:54:52;2.95;;;0.82;;
16440;SDS011;8330;-33.858;151.184;2023-03-07T14:57:26;2.17;;;0.82;;
16440;SDS011;8330;-33.858;151.184;2023-03-07T15:00:10;2.33;;;0.88;;
16440;SDS011;8330;-33.858;151.184;2023-03-07T15:02:46;2.22;;;0.88;;
16440;SDS011;8330;-33.858;151.184;2023-03-07T15:05:18;5.22;;;1.00;;
16440;SDS011;8330;-33.858;151.184;2023-03-07T15:07:50;3.45;;;1.02;;
16440;SDS011;8330;-33.858;151.184;2023-03-07T15:10:22;3.65;;;0.80;;
16440;SDS011;8330;-33.858;151.184;2023-03-07T15:12:58;2.35;;;0.85;;
16440;SDS011;8330;-33.858;151.184;2023-03-07T15:15:34;4.40;;;1.23;;
16440;SDS011;8330;-33.858;151.184;2023-03-07T15:18:11;1.67;;;0.70;;
16440;SDS011;8330;-33.858;151.184;2023-03-07T15:20:47;2.95;;;1.10;;
16440;SDS011;8330;-33.858;151.184;2023-03-07T15:23:20;4.30;;;1.10;;
16440;SDS011;8330;-33.858;151.184;2023-03-07T15:25:53;2.70;;;0.82;;
16440;SDS011;8330;-33.858;151.184;2023-03-07T15:28:31;2.40;;;0.73;;
16440;SDS011;8330;-33.858;151.184;2023-03-07T15:31:05;1.55;;;0.68;;